createdAt,value
2023-05-06T00:00:25.648Z,17.07
2023-05-06T00:05:30.914Z,11.97
2023-05-06T00:10:40.175Z,10.53
2023-05-06T00:15:45.403Z,10.43
2023-05-06T00:20:55.661Z,12.80
2023-05-06T00:26:03.589Z,13.17
2023-05-06T00:31:09.895Z,13.73
2023-05-06T00:36:15.063Z,11.20
2023-05-06T00:41:23.033Z,11.20
2023-05-06T00:46:31.668Z,14.27
2023-05-06T00:51:36.957Z,13.60
2023-05-06T00:56:45.022Z,11.27
2023-05-06T01:01:50.337Z,13.10
2023-05-06T01:07:05.385Z,18.00
2023-05-06T01:12:20.161Z,12.00
2023-05-06T01:17:29.290Z,14.50
2023-05-06T01:22:39.844Z,14.40
2023-05-06T01:27:47.946Z,13.63
2023-05-06T01:33:03.684Z,16.87
2023-05-06T01:38:18.408Z,16.40
2023-05-06T01:43:32.880Z,17.83
2023-05-06T01:48:40.596Z,14.43
2023-05-06T01:53:45.820Z,14.43
2023-05-06T01:58:53.713Z,16.40
2023-05-06T02:03:59.408Z,18.47
2023-05-06T02:09:05.875Z,12.70
2023-05-06T02:14:18.203Z,12.47
2023-05-06T02:19:26.626Z,14.13
2023-05-06T02:24:32.003Z,15.63
2023-05-06T02:29:41.139Z,13.73
2023-05-06T02:34:47.421Z,14.23
2023-05-06T02:39:52.537Z,19.40
2023-05-06T02:45:00.642Z,12.87
2023-05-06T02:50:06.591Z,13.43
2023-05-06T02:55:13.733Z,12.40
2023-05-06T03:00:22.197Z,13.00
2023-05-06T03:05:30.626Z,11.07
2023-05-06T03:10:36.851Z,13.20
2023-05-06T03:15:44.833Z,14.93
2023-05-06T03:20:51.813Z,14.07
2023-05-06T03:25:58.992Z,11.07
2023-05-06T03:31:07.632Z,13.40
2023-05-06T03:36:14.251Z,13.60
2023-05-06T03:41:22.303Z,9.90
2023-05-06T03:46:31.115Z,12.23
2023-05-06T03:51:36.400Z,11.23
2023-05-06T03:56:41.625Z,9.77
2023-05-06T04:01:49.368Z,11.07
2023-05-06T04:06:55.305Z,9.67
2023-05-06T04:12:02.904Z,10.47
2023-05-06T04:17:11.115Z,13.17
2023-05-06T04:22:16.521Z,11.97
2023-05-06T04:27:23.466Z,11.47
2023-05-06T04:32:31.406Z,10.87
2023-05-06T04:37:36.646Z,11.43
2023-05-06T04:42:47.557Z,9.73
2023-05-06T04:48:00.929Z,9.80
2023-05-06T04:53:06.274Z,10.10
2023-05-06T04:58:11.777Z,9.07
2023-05-06T05:03:20.154Z,10.40
2023-05-06T05:08:25.836Z,11.07
2023-05-06T05:13:33.949Z,11.20
2023-05-06T05:18:43.771Z,14.37
2023-05-06T05:23:56.601Z,11.67
2023-05-06T05:29:02.113Z,13.60
2023-05-06T05:34:10.377Z,13.80
2023-05-06T05:39:15.549Z,13.63
2023-05-06T05:44:31.667Z,18.37
2023-05-06T05:49:39.704Z,23.23
2023-05-06T05:54:47.594Z,17.80
2023-05-06T05:59:56.262Z,18.83
2023-05-06T06:05:06.306Z,19.20
2023-05-06T06:10:14.227Z,21.73
2023-05-06T06:15:21.670Z,25.03
2023-05-06T06:20:30.997Z,24.93
2023-05-06T06:25:44.516Z,25.80
2023-05-06T06:30:53.542Z,26.10
2023-05-06T06:36:01.682Z,28.20
2023-05-06T06:41:07.774Z,28.13
2023-05-06T06:46:13.049Z,31.10
2023-05-06T06:51:21.062Z,29.63
2023-05-06T06:56:26.268Z,29.40
2023-05-06T07:01:31.370Z,27.90
2023-05-06T07:06:39.738Z,29.40
2023-05-06T07:11:45.026Z,26.57
2023-05-06T07:16:53.624Z,28.07
2023-05-06T07:22:04.033Z,26.87
2023-05-06T07:27:09.473Z,28.00
2023-05-06T07:32:14.744Z,27.70
2023-05-06T07:37:22.471Z,31.30
2023-05-06T07:42:27.992Z,29.27
2023-05-06T07:47:34.803Z,25.57
2023-05-06T07:52:44.248Z,26.10
2023-05-06T07:57:53.740Z,26.50
2023-05-06T08:03:00.421Z,29.70
2023-05-06T08:08:09.882Z,30.73
2023-05-06T08:13:15.212Z,28.43
2023-05-06T08:18:22.956Z,29.33
2023-05-06T08:23:31.998Z,25.67
2023-05-06T08:28:37.232Z,28.40
2023-05-06T08:33:42.752Z,24.67
2023-05-06T08:38:53.968Z,25.40
2023-05-06T08:44:01.375Z,28.73
2023-05-06T08:49:09.951Z,27.23
2023-05-06T08:54:19.290Z,22.63
2023-05-06T08:59:27.616Z,26.37
2023-05-06T09:04:33.890Z,26.10
2023-05-06T09:09:42.219Z,26.70
2023-05-06T09:14:47.607Z,24.83
2023-05-06T09:19:56.635Z,29.73
2023-05-06T09:25:08.349Z,33.20
2023-05-06T09:30:16.044Z,25.43
2023-05-06T09:35:21.175Z,32.63
2023-05-06T09:40:30.406Z,32.60
2023-05-06T09:45:35.709Z,30.17
2023-05-06T09:50:42.789Z,29.07
2023-05-06T09:55:52.196Z,27.23
2023-05-06T10:00:58.680Z,32.47
2023-05-06T10:06:09.316Z,29.47
2023-05-06T10:11:20.572Z,27.83
2023-05-06T10:16:28.903Z,30.63
2023-05-06T10:21:39.601Z,29.73
2023-05-06T10:26:48.515Z,25.60
2023-05-06T10:31:58.423Z,24.97
2023-05-06T10:37:08.938Z,27.70
2023-05-06T10:42:20.470Z,27.13
2023-05-06T10:47:25.652Z,34.03
2023-05-06T10:52:47.219Z,27.67
2023-05-06T10:57:58.027Z,29.97
2023-05-06T11:03:08.677Z,29.10
2023-05-06T11:08:14.322Z,29.10
2023-05-06T11:13:28.491Z,26.90
2023-05-06T11:18:51.261Z,27.63
2023-05-06T11:24:12.650Z,28.77
2023-05-06T11:29:22.668Z,27.00
2023-05-06T11:34:30.430Z,31.30
2023-05-06T11:39:40.921Z,34.77
2023-05-06T11:44:49.022Z,27.77
2023-05-06T11:49:59.175Z,27.90
2023-05-06T11:55:04.395Z,27.83
2023-05-06T12:00:14.928Z,30.43
2023-05-06T12:05:20.475Z,29.13
2023-05-06T12:10:27.871Z,28.90
2023-05-06T12:15:37.227Z,28.30
2023-05-06T12:20:42.887Z,30.53
2023-05-06T12:25:50.391Z,28.40
2023-05-06T12:30:59.580Z,24.50
2023-05-06T12:36:10.196Z,25.37
2023-05-06T12:41:15.779Z,22.00
2023-05-06T12:46:26.130Z,22.43
2023-05-06T12:51:32.549Z,23.93
2023-05-06T12:56:40.355Z,22.90
2023-05-06T13:01:48.337Z,20.73
2023-05-06T13:06:55.905Z,20.23
2023-05-06T13:12:01.337Z,19.00
2023-05-06T13:17:09.248Z,16.67
2023-05-06T13:22:14.469Z,20.33
2023-05-06T13:27:19.796Z,25.67
2023-05-06T13:32:27.549Z,25.77
2023-05-06T13:37:32.728Z,23.63
2023-05-06T13:42:39.319Z,22.37
2023-05-06T13:47:49.628Z,23.50
2023-05-06T13:52:55.265Z,21.37
2023-05-06T13:58:01.206Z,22.63
2023-05-06T14:03:10.547Z,28.53
2023-05-06T14:08:15.833Z,25.43
2023-05-06T14:13:21.203Z,24.83
2023-05-06T14:18:33.869Z,21.80
2023-05-06T14:23:39.307Z,23.30
2023-05-06T14:28:44.373Z,21.97
2023-05-06T14:33:52.173Z,24.53
2023-05-06T14:38:57.232Z,25.77
2023-05-06T14:44:02.340Z,28.30
2023-05-06T14:49:12.617Z,32.93
2023-05-06T14:54:17.678Z,31.23
2023-05-06T14:59:23.137Z,37.47
2023-05-06T15:04:31.332Z,26.27
2023-05-06T15:09:37.391Z,26.13
2023-05-06T15:14:42.637Z,24.93
2023-05-06T15:19:50.824Z,23.57
2023-05-06T15:24:55.873Z,27.20
2023-05-06T15:30:04.385Z,29.80
2023-05-06T15:35:12.824Z,33.77
2023-05-06T15:40:18.308Z,22.20
2023-05-06T15:45:24.410Z,25.03
2023-05-06T15:50:36.292Z,25.17
2023-05-06T15:55:47.692Z,28.80
2023-05-06T16:00:59.780Z,26.87
2023-05-06T16:06:08.111Z,27.60
2023-05-06T16:11:13.405Z,28.70
2023-05-06T16:16:21.079Z,30.00
2023-05-06T16:21:29.048Z,32.77
2023-05-06T16:26:36.488Z,29.67
2023-05-06T16:31:41.764Z,30.47
2023-05-06T16:36:51.964Z,29.80
2023-05-06T16:41:58.206Z,32.13
2023-05-06T16:47:11.180Z,26.27
2023-05-06T16:52:20.643Z,25.87
2023-05-06T16:57:25.728Z,27.67
2023-05-06T17:02:32.091Z,25.37
2023-05-06T17:07:40.175Z,29.57
2023-05-06T17:12:45.384Z,28.20
2023-05-06T17:17:50.913Z,24.43
2023-05-06T17:22:58.839Z,22.40
2023-05-06T17:28:04.032Z,21.47
2023-05-06T17:33:10.504Z,26.73
2023-05-06T17:38:22.711Z,24.77
2023-05-06T17:43:29.136Z,21.87
2023-05-06T17:48:34.170Z,21.63
2023-05-06T17:53:42.433Z,24.13
2023-05-06T17:58:52.418Z,20.43
2023-05-06T18:03:58.176Z,24.40
2023-05-06T18:09:07.451Z,25.77
2023-05-06T18:14:12.782Z,20.77
2023-05-06T18:19:18.922Z,21.97
2023-05-06T18:24:28.198Z,20.93
2023-05-06T18:29:35.094Z,18.70
2023-05-06T18:34:41.866Z,21.00
2023-05-06T18:39:49.642Z,17.87
2023-05-06T18:45:02.386Z,25.87
2023-05-06T18:50:08.412Z,21.90
2023-05-06T18:55:16.835Z,21.20
2023-05-06T19:00:29.232Z,17.87
2023-05-06T19:05:45.260Z,27.57
2023-05-06T19:10:53.338Z,21.00
2023-05-06T19:16:02.654Z,24.30
2023-05-06T19:21:11.028Z,20.43
2023-05-06T19:26:21.835Z,17.93
2023-05-06T19:31:27.386Z,19.50
2023-05-06T19:36:32.794Z,16.63
2023-05-06T19:41:41.949Z,18.10
2023-05-06T19:46:47.275Z,19.50
2023-05-06T19:51:52.418Z,19.93
2023-05-06T19:57:03.258Z,19.20
2023-05-06T20:02:16.706Z,17.07
2023-05-06T20:07:25.398Z,16.00
2023-05-06T20:12:33.434Z,14.67
2023-05-06T20:17:39.592Z,15.77
2023-05-06T20:22:44.767Z,10.77
2023-05-06T20:27:53.687Z,11.07
2023-05-06T20:33:00.517Z,11.07
2023-05-06T20:38:06.726Z,10.00
2023-05-06T20:43:35.434Z,12.00
2023-05-06T20:48:41.954Z,12.07
2023-05-06T20:53:47.909Z,13.97
2023-05-06T20:58:57.682Z,12.90
2023-05-06T21:04:05.193Z,15.13
2023-05-06T21:09:10.698Z,9.83
2023-05-06T21:14:19.671Z,9.20
2023-05-06T21:19:27.188Z,11.07
2023-05-06T21:24:33.360Z,11.80
2023-05-06T21:29:42.603Z,12.77
2023-05-06T21:34:47.834Z,12.20
2023-05-06T21:39:54.393Z,11.47
2023-05-06T21:45:04.866Z,16.77
2023-05-06T21:50:11.655Z,15.13
2023-05-06T21:55:17.236Z,12.90
2023-05-06T22:00:30.006Z,14.17
2023-05-06T22:05:35.537Z,15.07
2023-05-06T22:10:44.208Z,22.53
2023-05-06T22:15:54.084Z,18.23
2023-05-06T22:20:59.980Z,14.63
2023-05-06T22:26:08.712Z,17.00
2023-05-06T22:31:19.453Z,20.47
2023-05-06T22:36:33.289Z,20.53
2023-05-06T22:41:40.392Z,22.43
2023-05-06T22:46:49.578Z,21.57
2023-05-06T22:51:57.712Z,23.80
2023-05-06T22:57:03.157Z,21.20
2023-05-06T23:02:12.013Z,19.13
2023-05-06T23:07:18.353Z,17.57
2023-05-06T23:12:25.092Z,19.77
2023-05-06T23:17:33.538Z,20.13
2023-05-06T23:22:38.637Z,19.73
2023-05-06T23:27:45.888Z,17.50
2023-05-06T23:32:53.690Z,19.77
2023-05-06T23:37:58.742Z,22.63
2023-05-06T23:43:07.362Z,23.93
2023-05-06T23:48:15.079Z,19.37
2023-05-06T23:53:20.553Z,21.27
2023-05-06T23:58:25.803Z,25.67
